Mack, Ohio
Current Conditions -  °F | °C
As of 5:34 PM on Monday 22 Dec 2014 (Local Time) from KI69 Reporting Station
Overcast Overcast  
Wind Chill: 45°   Ceiling: 11000
Heat Index: 48°   Visibility: 10mi
Dew Point: 37°   Wind: 7mph
Humidity: 66%   Direction: 100°E
Pressure: 29.81"   Gusts: NA
Location:  39.1663°N, 84.6602°W
Report Text: KI69 222234Z AUTO 10006KT 10SM SCT080 OVC110 09/03 A2981 RMK AO1
Loading
Personal Weather Stations






























Interactive Weather Map New forecast layout! Learn more

10-Day Weather Forecast

Advertisements
Track Severe Weather on mobile